createdAt,value
2023-02-19T00:01:24.402Z,9.75
2023-02-19T00:04:03.170Z,9.94
2023-02-19T00:06:32.189Z,10.15
2023-02-19T00:08:59.245Z,9.76
2023-02-19T00:11:29.858Z,9.74
2023-02-19T00:13:58.709Z,9.49
2023-02-19T00:16:31.901Z,9.53
2023-02-19T00:19:00.764Z,9.38
2023-02-19T00:21:28.120Z,9.33
2023-02-19T00:24:01.524Z,9.24
2023-02-19T00:26:29.466Z,9.38
2023-02-19T00:28:58.137Z,8.91
2023-02-19T00:31:32.670Z,9.14
2023-02-19T00:34:02.188Z,9.10
2023-02-19T00:36:29.833Z,9.46
2023-02-19T00:38:57.086Z,9.58
2023-02-19T00:41:26.703Z,9.57
2023-02-19T00:43:56.257Z,9.44
2023-02-19T00:46:35.302Z,9.42
2023-02-19T00:49:04.012Z,9.69
2023-02-19T00:51:34.771Z,9.56
2023-02-19T00:54:02.294Z,9.40
2023-02-19T00:56:29.038Z,9.09
2023-02-19T00:58:55.984Z,8.79
2023-02-19T01:01:22.706Z,8.99
2023-02-19T01:03:49.429Z,9.56
2023-02-19T01:06:18.766Z,9.66
2023-02-19T01:08:45.523Z,9.26
2023-02-19T01:11:13.048Z,8.95
2023-02-19T01:13:41.118Z,9.22
2023-02-19T01:16:20.542Z,8.96
2023-02-19T01:18:48.577Z,9.61
2023-02-19T01:21:24.394Z,9.65
2023-02-19T01:23:52.975Z,9.90
2023-02-19T01:26:22.529Z,9.83
2023-02-19T01:28:49.213Z,9.65
2023-02-19T01:31:21.205Z,9.13
2023-02-19T01:33:50.765Z,9.77
2023-02-19T01:36:17.518Z,9.02
2023-02-19T01:38:45.017Z,9.19
2023-02-19T01:41:16.568Z,9.26
2023-02-19T01:43:58.320Z,9.32
2023-02-19T01:46:32.592Z,9.62
2023-02-19T01:49:19.738Z,9.69
2023-02-19T01:51:52.429Z,9.59
2023-02-19T01:54:25.165Z,8.91
2023-02-19T01:56:53.386Z,8.98
2023-02-19T01:59:20.462Z,8.57
2023-02-19T02:01:48.286Z,8.19
2023-02-19T02:04:18.059Z,8.04
2023-02-19T02:06:57.391Z,8.15
2023-02-19T02:09:28.200Z,7.85
2023-02-19T02:11:54.898Z,8.28
2023-02-19T02:14:27.410Z,8.55
2023-02-19T02:17:14.510Z,8.28
2023-02-19T02:20:26.041Z,8.61
2023-02-19T02:23:18.045Z,9.27
2023-02-19T02:26:25.709Z,9.13
2023-02-19T02:29:20.254Z,9.04
2023-02-19T02:32:07.723Z,8.76
2023-02-19T02:34:45.308Z,8.56
2023-02-19T02:37:15.055Z,8.54
2023-02-19T02:39:45.576Z,8.59
2023-02-19T02:42:13.738Z,8.89
2023-02-19T02:44:42.208Z,8.93
2023-02-19T02:47:11.101Z,8.85
2023-02-19T02:49:39.673Z,8.50
2023-02-19T02:52:08.231Z,8.16
2023-02-19T02:54:36.154Z,8.37
2023-02-19T02:57:03.687Z,8.81
2023-02-19T02:59:39.701Z,8.59
2023-02-19T03:02:16.606Z,8.80
2023-02-19T03:04:55.462Z,9.34
2023-02-19T03:07:22.158Z,8.69
2023-02-19T03:09:49.725Z,8.72
2023-02-19T03:12:20.708Z,8.36
2023-02-19T03:14:54.141Z,8.11
2023-02-19T03:17:33.864Z,8.29
2023-02-19T03:20:06.214Z,8.85
2023-02-19T03:22:36.666Z,8.80
2023-02-19T03:25:17.501Z,8.66
2023-02-19T03:27:48.342Z,8.52
2023-02-19T03:30:25.570Z,7.84
2023-02-19T03:32:59.540Z,7.64
2023-02-19T03:35:31.841Z,7.46
2023-02-19T03:38:13.713Z,7.68
2023-02-19T03:40:59.829Z,7.55
2023-02-19T03:43:35.465Z,7.71
2023-02-19T03:46:13.356Z,8.61
2023-02-19T03:48:54.370Z,8.86
2023-02-19T03:51:28.284Z,8.40
2023-02-19T03:54:18.490Z,7.51
2023-02-19T03:56:54.318Z,7.97
2023-02-19T03:59:34.693Z,7.36
2023-02-19T04:02:10.142Z,7.23
2023-02-19T04:04:45.567Z,7.07
2023-02-19T04:07:13.093Z,7.22
2023-02-19T04:09:47.555Z,7.04
2023-02-19T04:12:16.574Z,6.71
2023-02-19T04:15:10.309Z,6.67
2023-02-19T04:17:48.050Z,6.63
2023-02-19T04:20:18.824Z,6.93
2023-02-19T04:22:45.892Z,6.70
2023-02-19T04:25:14.595Z,6.77
2023-02-19T04:27:45.263Z,6.83
2023-02-19T04:30:14.258Z,6.88
2023-02-19T04:32:41.357Z,7.37
2023-02-19T04:35:08.446Z,7.52
2023-02-19T04:37:35.404Z,7.49
2023-02-19T04:40:02.198Z,7.49
2023-02-19T04:42:29.316Z,7.48
2023-02-19T04:44:56.008Z,7.52
2023-02-19T04:47:22.817Z,7.58
2023-02-19T04:49:52.382Z,7.28
2023-02-19T04:52:19.099Z,7.75
2023-02-19T04:54:45.801Z,7.62
2023-02-19T04:57:12.520Z,7.83
2023-02-19T04:59:39.275Z,7.93
2023-02-19T05:02:06.189Z,7.86
2023-02-19T05:04:32.912Z,7.84
2023-02-19T05:06:59.601Z,8.14
2023-02-19T05:09:26.401Z,8.83
2023-02-19T05:11:53.156Z,9.21
2023-02-19T05:14:19.794Z,8.89
2023-02-19T05:16:46.395Z,9.05
2023-02-19T05:19:13.857Z,8.84
2023-02-19T05:21:40.717Z,8.98
2023-02-19T05:24:07.957Z,9.27
2023-02-19T05:26:35.339Z,9.27
2023-02-19T05:29:02.388Z,9.02
2023-02-19T05:31:29.470Z,8.55
2023-02-19T05:33:56.933Z,8.87
2023-02-19T05:36:24.294Z,8.74
2023-02-19T05:38:55.636Z,8.67
2023-02-19T05:41:25.380Z,9.11
2023-02-19T05:43:52.117Z,9.06
2023-02-19T05:46:21.988Z,9.04
2023-02-19T05:48:51.042Z,8.67
2023-02-19T05:51:20.844Z,8.97
2023-02-19T05:53:48.194Z,8.14
2023-02-19T05:56:39.080Z,8.44
2023-02-19T05:59:20.288Z,9.02
2023-02-19T06:01:48.096Z,8.84
2023-02-19T06:04:15.376Z,8.79
2023-02-19T06:06:42.497Z,8.88
2023-02-19T06:09:09.688Z,8.62
2023-02-19T06:11:36.689Z,8.83
2023-02-19T06:14:03.930Z,9.13
2023-02-19T06:16:30.714Z,9.00
2023-02-19T06:18:57.502Z,8.69
2023-02-19T06:21:24.159Z,8.45
2023-02-19T06:23:50.825Z,8.40
2023-02-19T06:26:23.627Z,8.21
2023-02-19T06:28:52.569Z,8.13
2023-02-19T06:31:21.044Z,8.23
2023-02-19T06:33:47.692Z,8.28
2023-02-19T06:36:17.825Z,8.21
2023-02-19T06:38:44.813Z,7.79
2023-02-19T06:41:12.793Z,8.16
2023-02-19T06:43:39.718Z,8.49
2023-02-19T06:46:07.515Z,7.96
2023-02-19T06:48:35.324Z,7.98
2023-02-19T06:51:02.968Z,8.81
2023-02-19T06:53:29.868Z,9.05
2023-02-19T06:56:05.968Z,9.82
2023-02-19T06:58:34.105Z,9.75
2023-02-19T07:01:01.737Z,10.01
2023-02-19T07:03:28.629Z,10.22
2023-02-19T07:05:59.602Z,10.54
2023-02-19T07:08:28.539Z,10.55
2023-02-19T07:10:57.989Z,10.57
2023-02-19T07:13:26.437Z,10.74
2023-02-19T07:15:59.905Z,10.87
2023-02-19T07:18:26.707Z,10.74
2023-02-19T07:20:53.513Z,10.07
2023-02-19T07:23:20.212Z,10.26
2023-02-19T07:25:46.857Z,9.83
2023-02-19T07:28:13.478Z,10.18
2023-02-19T07:30:40.213Z,10.55
2023-02-19T07:33:09.372Z,9.48
2023-02-19T07:35:37.022Z,8.91
2023-02-19T07:38:03.782Z,9.85
2023-02-19T07:40:33.365Z,9.12
2023-02-19T07:42:59.971Z,9.03
2023-02-19T07:45:26.869Z,8.90
2023-02-19T07:47:53.479Z,9.89
2023-02-19T07:50:20.097Z,10.25
2023-02-19T07:52:46.721Z,10.71
2023-02-19T07:55:13.371Z,10.53
2023-02-19T07:57:39.988Z,10.57
2023-02-19T08:00:06.854Z,10.11
2023-02-19T08:02:33.485Z,10.25
2023-02-19T08:05:00.144Z,9.92
2023-02-19T08:07:34.483Z,9.81
2023-02-19T08:10:02.310Z,10.49
2023-02-19T08:12:28.904Z,10.32
2023-02-19T08:14:55.585Z,10.64
2023-02-19T08:17:22.253Z,10.16
2023-02-19T08:19:48.940Z,10.61
2023-02-19T08:22:15.543Z,10.30
2023-02-19T08:24:42.204Z,10.94
2023-02-19T08:27:08.816Z,11.71
2023-02-19T08:29:35.415Z,12.05
2023-02-19T08:32:03.445Z,12.50
2023-02-19T08:34:30.186Z,12.68
2023-02-19T08:36:56.868Z,12.75
2023-02-19T08:39:23.479Z,12.99
2023-02-19T08:41:50.086Z,13.29
2023-02-19T08:44:16.680Z,13.10
2023-02-19T08:46:43.321Z,12.99
2023-02-19T08:49:09.942Z,13.05
2023-02-19T08:51:36.759Z,13.06
2023-02-19T08:54:03.891Z,13.25
2023-02-19T08:56:30.565Z,12.69
2023-02-19T08:58:57.228Z,12.30
2023-02-19T09:01:23.941Z,12.16
2023-02-19T09:03:50.758Z,12.10
2023-02-19T09:06:19.784Z,11.70
2023-02-19T09:08:46.502Z,11.15
2023-02-19T09:11:13.743Z,11.12
2023-02-19T09:13:40.778Z,11.49
2023-02-19T09:16:19.218Z,11.98
2023-02-19T09:19:01.358Z,11.28
2023-02-19T09:21:31.170Z,11.20
2023-02-19T09:23:57.797Z,11.98
2023-02-19T09:26:24.374Z,12.04
2023-02-19T09:28:51.005Z,11.87
2023-02-19T09:31:17.805Z,12.20
2023-02-19T09:33:45.957Z,11.94
2023-02-19T09:36:14.550Z,12.20
2023-02-19T09:38:41.587Z,12.33
2023-02-19T09:41:22.379Z,12.33
2023-02-19T09:43:49.125Z,11.74
2023-02-19T09:46:44.261Z,11.69
2023-02-19T09:49:16.969Z,12.08
2023-02-19T09:51:54.243Z,12.16
2023-02-19T09:54:25.432Z,12.09
2023-02-19T09:56:56.162Z,11.89
2023-02-19T09:59:37.339Z,11.99
2023-02-19T10:02:17.041Z,11.98
2023-02-19T10:04:45.901Z,12.27
2023-02-19T10:07:33.247Z,12.35
2023-02-19T10:10:20.290Z,12.54
2023-02-19T10:12:50.841Z,12.90
2023-02-19T10:15:41.460Z,13.05
2023-02-19T10:18:11.115Z,12.64
2023-02-19T10:20:40.031Z,12.67
2023-02-19T10:23:13.296Z,12.59
2023-02-19T10:25:47.038Z,12.59
2023-02-19T10:28:18.812Z,12.58
2023-02-19T10:30:53.733Z,12.28
2023-02-19T10:33:24.893Z,12.61
2023-02-19T10:35:59.008Z,12.49
2023-02-19T10:38:45.414Z,12.23
2023-02-19T10:41:19.927Z,12.18
2023-02-19T10:44:16.075Z,12.11
2023-02-19T10:46:49.783Z,12.02
2023-02-19T10:49:40.707Z,12.16
2023-02-19T10:52:16.054Z,12.22
2023-02-19T10:54:43.076Z,12.15
2023-02-19T10:57:15.948Z,12.45
2023-02-19T10:59:51.448Z,12.44
2023-02-19T11:02:21.061Z,12.40
2023-02-19T11:05:06.192Z,12.58
2023-02-19T11:07:33.567Z,12.73
2023-02-19T11:10:01.097Z,12.60
2023-02-19T11:12:34.143Z,13.02
2023-02-19T11:15:24.256Z,13.30
2023-02-19T11:18:12.609Z,13.65
2023-02-19T11:20:59.038Z,13.04
2023-02-19T11:23:43.865Z,13.00
2023-02-19T11:26:22.738Z,12.94
2023-02-19T11:29:17.428Z,13.22
2023-02-19T11:31:44.228Z,13.25
2023-02-19T11:34:13.823Z,13.21
2023-02-19T11:36:42.763Z,13.57
2023-02-19T11:39:15.522Z,13.20
2023-02-19T11:41:54.505Z,13.43
2023-02-19T11:44:52.311Z,12.97
2023-02-19T11:47:59.946Z,13.04
2023-02-19T11:50:47.732Z,13.00
2023-02-19T11:53:31.763Z,12.89
2023-02-19T11:56:19.853Z,13.03
2023-02-19T11:59:18.732Z,12.82
2023-02-19T12:01:59.727Z,13.11
2023-02-19T12:04:48.062Z,13.23
2023-02-19T12:07:25.896Z,12.75
2023-02-19T12:09:58.363Z,12.69
2023-02-19T12:12:57.173Z,13.07
2023-02-19T12:15:49.227Z,13.11
2023-02-19T12:18:41.774Z,13.05
2023-02-19T12:21:45.076Z,13.31
2023-02-19T12:24:59.189Z,13.40
2023-02-19T12:27:47.011Z,13.48
2023-02-19T12:30:40.834Z,13.54
2023-02-19T12:33:55.064Z,13.38
2023-02-19T12:36:24.631Z,13.44
2023-02-19T12:39:22.224Z,13.50
2023-02-19T12:42:11.846Z,13.42
2023-02-19T12:44:45.790Z,13.04
2023-02-19T12:47:39.753Z,13.17
2023-02-19T12:50:23.730Z,13.01
2023-02-19T12:53:08.066Z,13.27
2023-02-19T12:55:43.162Z,13.97
2023-02-19T12:58:21.839Z,13.54
2023-02-19T13:00:54.601Z,13.74
2023-02-19T13:03:31.023Z,14.02
2023-02-19T13:06:20.250Z,14.07
2023-02-19T13:09:06.758Z,13.83
2023-02-19T13:11:48.518Z,14.44
2023-02-19T13:14:34.589Z,14.49
2023-02-19T13:17:12.932Z,14.21
2023-02-19T13:19:39.780Z,14.57
2023-02-19T13:22:41.209Z,14.02
2023-02-19T13:25:11.755Z,13.98
2023-02-19T13:28:04.556Z,14.15
2023-02-19T13:31:02.826Z,13.87
2023-02-19T13:34:09.583Z,14.22
2023-02-19T13:36:37.316Z,14.24
2023-02-19T13:39:07.635Z,14.24
2023-02-19T13:41:49.057Z,14.24
2023-02-19T13:44:21.810Z,14.32
2023-02-19T13:46:50.337Z,14.26
2023-02-19T13:49:22.716Z,14.77
2023-02-19T13:52:22.505Z,14.86
2023-02-19T13:54:49.297Z,15.06
2023-02-19T13:57:22.019Z,14.85
2023-02-19T13:59:52.988Z,14.49
2023-02-19T14:02:22.717Z,14.84
2023-02-19T14:04:56.353Z,14.94
2023-02-19T14:07:38.067Z,15.18
2023-02-19T14:10:12.912Z,15.57
2023-02-19T14:12:39.528Z,15.11
2023-02-19T14:15:24.957Z,14.86
2023-02-19T14:17:51.674Z,14.48
2023-02-19T14:20:18.256Z,14.62
2023-02-19T14:22:44.816Z,15.20
2023-02-19T14:25:42.284Z,15.06
2023-02-19T14:28:26.124Z,14.92
2023-02-19T14:31:11.104Z,15.33
2023-02-19T14:33:43.392Z,15.06
2023-02-19T14:36:23.277Z,15.10
2023-02-19T14:39:05.446Z,15.17
2023-02-19T14:41:37.316Z,15.10
2023-02-19T14:44:12.825Z,14.85
2023-02-19T14:46:50.722Z,14.84
2023-02-19T14:49:25.174Z,14.50
2023-02-19T14:52:00.673Z,14.72
2023-02-19T14:54:41.861Z,14.87
2023-02-19T14:57:23.772Z,14.92
2023-02-19T15:00:03.983Z,14.22
2023-02-19T15:02:32.410Z,14.46
2023-02-19T15:04:59.087Z,14.91
2023-02-19T15:07:33.249Z,14.90
2023-02-19T15:10:05.832Z,15.06
2023-02-19T15:12:40.767Z,15.43
2023-02-19T15:15:08.852Z,15.42
2023-02-19T15:17:40.908Z,15.44
2023-02-19T15:20:18.717Z,15.74
2023-02-19T15:22:46.408Z,15.58
2023-02-19T15:25:22.345Z,15.22
2023-02-19T15:27:49.507Z,15.36
2023-02-19T15:30:27.122Z,15.78
2023-02-19T15:33:01.321Z,15.45
2023-02-19T15:35:30.722Z,15.54
2023-02-19T15:37:57.396Z,15.46
2023-02-19T15:40:32.092Z,15.08
2023-02-19T15:43:00.731Z,15.32
2023-02-19T15:45:44.166Z,14.60
2023-02-19T15:48:18.941Z,14.85
2023-02-19T15:50:54.965Z,14.23
2023-02-19T15:53:32.754Z,12.99
2023-02-19T15:56:11.480Z,13.23
2023-02-19T15:58:52.784Z,12.87
2023-02-19T16:01:22.325Z,12.58
2023-02-19T16:03:49.160Z,12.53
2023-02-19T16:06:18.015Z,12.70
2023-02-19T16:08:58.875Z,12.20
2023-02-19T16:11:36.864Z,12.02
2023-02-19T16:14:36.911Z,11.99
2023-02-19T16:17:15.561Z,11.79
2023-02-19T16:19:47.730Z,11.65
2023-02-19T16:22:19.955Z,11.31
2023-02-19T16:24:51.571Z,11.33
2023-02-19T16:27:37.532Z,11.25
2023-02-19T16:30:22.893Z,11.32
2023-02-19T16:33:27.947Z,11.11
2023-02-19T16:35:54.553Z,10.77
2023-02-19T16:38:21.445Z,10.67
2023-02-19T16:40:48.063Z,10.66
2023-02-19T16:43:14.664Z,10.62
2023-02-19T16:45:42.433Z,10.72
2023-02-19T16:48:10.109Z,10.52
2023-02-19T16:50:38.761Z,10.38
2023-02-19T16:53:05.385Z,10.26
2023-02-19T16:55:32.024Z,10.29
2023-02-19T16:57:58.634Z,10.22
2023-02-19T17:00:29.055Z,9.82
2023-02-19T17:02:59.445Z,9.72
2023-02-19T17:05:29.330Z,9.73
2023-02-19T17:07:55.938Z,9.67
2023-02-19T17:10:25.997Z,9.52
2023-02-19T17:12:54.485Z,9.53
2023-02-19T17:15:22.166Z,9.40
2023-02-19T17:17:50.551Z,9.16
2023-02-19T17:20:17.110Z,9.20
2023-02-19T17:22:43.882Z,9.17
2023-02-19T17:25:11.109Z,9.19
2023-02-19T17:27:37.751Z,9.11
2023-02-19T17:30:13.102Z,8.96
2023-02-19T17:32:39.828Z,9.06
2023-02-19T17:35:07.175Z,9.06
2023-02-19T17:37:33.757Z,9.04
2023-02-19T17:40:02.929Z,9.02
2023-02-19T17:42:29.555Z,8.98
2023-02-19T17:44:56.202Z,8.79
2023-02-19T17:47:22.821Z,8.76
2023-02-19T17:49:52.433Z,8.72
2023-02-19T17:52:19.041Z,8.66
2023-02-19T17:54:45.683Z,8.81
2023-02-19T17:57:12.297Z,8.71
2023-02-19T17:59:38.954Z,8.58
2023-02-19T18:02:06.077Z,8.67
2023-02-19T18:04:34.806Z,8.65
2023-02-19T18:07:02.064Z,8.42
2023-02-19T18:09:28.717Z,8.44
2023-02-19T18:11:55.438Z,8.35
2023-02-19T18:14:22.260Z,8.31
2023-02-19T18:16:50.365Z,8.26
2023-02-19T18:19:17.751Z,8.28
2023-02-19T18:21:44.364Z,8.33
2023-02-19T18:24:10.980Z,8.40
2023-02-19T18:26:37.645Z,8.36
2023-02-19T18:29:05.560Z,8.28
2023-02-19T18:31:33.229Z,8.25
2023-02-19T18:33:59.917Z,8.26
2023-02-19T18:36:26.576Z,8.20
2023-02-19T18:38:53.167Z,8.17
2023-02-19T18:41:20.472Z,8.30
2023-02-19T18:43:48.299Z,8.25
2023-02-19T18:46:15.285Z,8.37
2023-02-19T18:48:42.561Z,8.45
2023-02-19T18:51:10.566Z,8.55
2023-02-19T18:53:37.525Z,8.28
2023-02-19T18:56:04.370Z,8.23
2023-02-19T18:58:31.821Z,8.14
2023-02-19T19:00:58.438Z,8.35
2023-02-19T19:03:25.392Z,8.23
2023-02-19T19:05:52.026Z,8.33
2023-02-19T19:08:18.683Z,8.42
2023-02-19T19:10:45.348Z,8.24
2023-02-19T19:13:11.939Z,8.09
2023-02-19T19:15:38.558Z,7.96
2023-02-19T19:18:05.302Z,7.93
2023-02-19T19:20:31.893Z,8.05
2023-02-19T19:22:58.664Z,8.05
2023-02-19T19:25:25.335Z,7.95
2023-02-19T19:27:55.185Z,8.08
2023-02-19T19:30:22.473Z,8.11
2023-02-19T19:32:51.860Z,8.06
2023-02-19T19:35:23.950Z,7.99
2023-02-19T19:37:50.543Z,8.07
2023-02-19T19:40:20.136Z,8.03
2023-02-19T19:42:47.148Z,8.25
2023-02-19T19:45:14.519Z,8.12
2023-02-19T19:47:41.237Z,8.17
2023-02-19T19:50:08.186Z,8.11
2023-02-19T19:52:37.006Z,8.13
2023-02-19T19:55:05.020Z,8.10
2023-02-19T19:57:31.652Z,7.95
2023-02-19T19:59:59.741Z,7.81
2023-02-19T20:02:26.464Z,7.70
2023-02-19T20:04:53.104Z,7.74
2023-02-19T20:07:19.713Z,7.67
2023-02-19T20:09:50.012Z,7.58
2023-02-19T20:12:17.807Z,7.55
2023-02-19T20:14:46.266Z,7.44
2023-02-19T20:17:13.480Z,7.42
2023-02-19T20:19:40.121Z,7.43
2023-02-19T20:22:06.767Z,7.17
2023-02-19T20:24:33.444Z,7.26
2023-02-19T20:27:01.438Z,7.21
2023-02-19T20:29:34.421Z,7.26
2023-02-19T20:32:01.870Z,7.28
2023-02-19T20:34:31.432Z,7.33
2023-02-19T20:36:58.572Z,7.60
2023-02-19T20:39:27.151Z,7.50
2023-02-19T20:41:53.792Z,7.37
2023-02-19T20:44:20.588Z,7.39
2023-02-19T20:46:50.085Z,7.59
2023-02-19T20:49:20.129Z,7.48
2023-02-19T20:51:52.030Z,7.33
2023-02-19T20:54:20.846Z,7.33
2023-02-19T20:56:50.407Z,7.39
2023-02-19T20:59:17.992Z,7.27
2023-02-19T21:01:44.857Z,7.28
2023-02-19T21:04:11.987Z,7.15
2023-02-19T21:06:39.723Z,7.52
2023-02-19T21:09:06.436Z,7.44
2023-02-19T21:11:33.678Z,7.31
2023-02-19T21:14:00.287Z,7.32
2023-02-19T21:16:29.437Z,7.23
2023-02-19T21:18:56.477Z,7.33
2023-02-19T21:21:25.035Z,7.61
2023-02-19T21:23:52.677Z,7.33
2023-02-19T21:26:19.495Z,7.27
2023-02-19T21:28:46.222Z,7.14
2023-02-19T21:31:12.919Z,7.06
2023-02-19T21:33:39.572Z,6.85
2023-02-19T21:36:06.496Z,6.86
2023-02-19T21:38:33.195Z,6.65
2023-02-19T21:40:59.861Z,6.79
2023-02-19T21:43:28.914Z,6.78
2023-02-19T21:45:55.718Z,6.85
2023-02-19T21:48:25.095Z,6.76
2023-02-19T21:50:51.759Z,6.78
2023-02-19T21:53:18.429Z,6.88
2023-02-19T21:55:57.463Z,6.92
2023-02-19T21:58:27.848Z,6.78
2023-02-19T22:00:54.468Z,6.67
2023-02-19T22:03:22.574Z,6.77
2023-02-19T22:05:49.292Z,6.78
2023-02-19T22:08:20.216Z,6.83
2023-02-19T22:10:51.164Z,6.88
2023-02-19T22:13:17.895Z,6.93
2023-02-19T22:15:44.892Z,6.82
2023-02-19T22:18:11.858Z,6.82
2023-02-19T22:20:38.633Z,6.88
2023-02-19T22:23:06.209Z,7.01
2023-02-19T22:25:33.859Z,6.99
2023-02-19T22:28:00.721Z,7.07
2023-02-19T22:30:29.907Z,6.98
2023-02-19T22:32:56.593Z,7.00
2023-02-19T22:35:23.562Z,6.92
2023-02-19T22:37:50.211Z,7.09
2023-02-19T22:40:17.004Z,6.85
2023-02-19T22:42:43.651Z,7.13
2023-02-19T22:45:11.983Z,7.10
2023-02-19T22:47:38.671Z,6.89
2023-02-19T22:50:08.661Z,6.75
2023-02-19T22:52:35.275Z,6.85
2023-02-19T22:55:01.885Z,6.81
2023-02-19T22:57:28.562Z,6.72
2023-02-19T22:59:55.164Z,6.62
2023-02-19T23:02:21.776Z,6.68
2023-02-19T23:04:48.522Z,6.54
2023-02-19T23:07:15.153Z,6.50
2023-02-19T23:09:41.752Z,6.58
2023-02-19T23:12:11.258Z,6.72
2023-02-19T23:14:38.057Z,6.76
2023-02-19T23:17:04.767Z,7.04
2023-02-19T23:19:31.409Z,6.95
2023-02-19T23:21:58.549Z,6.94
2023-02-19T23:24:25.280Z,6.81
2023-02-19T23:26:53.614Z,6.69
2023-02-19T23:29:25.566Z,6.56
2023-02-19T23:31:53.433Z,6.76
2023-02-19T23:34:20.146Z,6.71
2023-02-19T23:36:49.904Z,6.72
2023-02-19T23:39:19.964Z,6.74
2023-02-19T23:41:51.442Z,6.81
2023-02-19T23:44:18.711Z,6.47
2023-02-19T23:46:45.604Z,6.46
2023-02-19T23:49:13.057Z,6.49
2023-02-19T23:51:39.758Z,6.76
2023-02-19T23:54:07.182Z,7.09
2023-02-19T23:56:34.936Z,7.20
2023-02-19T23:59:01.902Z,7.23
